createdAt,value
2018-07-17T00:00:16.096Z,0
2018-07-17T00:01:24.743Z,0
2018-07-17T00:02:33.396Z,0
2018-07-17T00:03:42.047Z,0
2018-07-17T00:04:50.953Z,0
2018-07-17T00:05:59.597Z,0
2018-07-17T00:07:08.252Z,0
2018-07-17T00:08:16.895Z,0
2018-07-17T00:09:25.544Z,0
2018-07-17T00:10:34.187Z,0
2018-07-17T00:11:42.836Z,0
2018-07-17T00:12:51.496Z,0
2018-07-17T00:14:00.393Z,0
2018-07-17T00:15:09.041Z,0
2018-07-17T00:16:17.683Z,0
2018-07-17T00:17:26.330Z,0
2018-07-17T00:18:34.979Z,0
2018-07-17T00:19:43.900Z,0
2018-07-17T00:20:52.543Z,0
2018-07-17T00:22:01.191Z,0
2018-07-17T00:23:09.837Z,0
2018-07-17T00:24:18.488Z,0
2018-07-17T00:25:27.134Z,0
2018-07-17T00:26:35.785Z,0
2018-07-17T00:27:44.428Z,0
2018-07-17T00:28:53.342Z,0
2018-07-17T00:30:01.994Z,0
2018-07-17T00:31:10.635Z,0
2018-07-17T00:32:19.279Z,0
2018-07-17T00:33:27.924Z,0
2018-07-17T00:34:36.843Z,0
2018-07-17T00:35:45.486Z,0
2018-07-17T00:36:54.137Z,0
2018-07-17T00:38:02.776Z,0
2018-07-17T00:39:11.433Z,0
2018-07-17T00:40:20.077Z,0
2018-07-17T00:41:28.728Z,0
2018-07-17T00:42:37.365Z,0
2018-07-17T00:43:46.285Z,0
2018-07-17T00:44:54.930Z,0
2018-07-17T00:46:04.110Z,0
2018-07-17T00:47:13.013Z,0
2018-07-17T00:48:21.661Z,0
2018-07-17T00:49:30.316Z,0
2018-07-17T00:50:38.962Z,0
2018-07-17T00:51:47.876Z,0
2018-07-17T00:52:56.776Z,0
2018-07-17T00:54:05.427Z,0
2018-07-17T00:55:14.071Z,0
2018-07-17T00:56:22.727Z,0
2018-07-17T00:57:31.363Z,0
2018-07-17T00:58:40.016Z,0
2018-07-17T00:59:48.921Z,0
2018-07-17T01:00:57.606Z,0
2018-07-17T01:02:06.210Z,0
2018-07-17T01:03:14.857Z,0
2018-07-17T01:04:23.503Z,0
2018-07-17T01:05:32.156Z,0
2018-07-17T01:06:40.803Z,0
2018-07-17T01:07:49.444Z,0
2018-07-17T01:08:58.088Z,0
2018-07-17T01:10:06.733Z,0
2018-07-17T01:11:15.387Z,0
2018-07-17T01:12:24.030Z,0
2018-07-17T01:13:32.679Z,0
2018-07-17T01:14:41.316Z,0
2018-07-17T01:15:49.971Z,0
2018-07-17T01:16:59.147Z,0
2018-07-17T01:18:08.070Z,0
2018-07-17T01:19:16.706Z,0
2018-07-17T01:20:25.362Z,0
2018-07-17T01:21:34.008Z,0
2018-07-17T01:22:42.657Z,0
2018-07-17T01:23:51.555Z,0
2018-07-17T01:25:00.207Z,0
2018-07-17T01:26:09.120Z,0
2018-07-17T01:27:17.829Z,0
2018-07-17T01:28:26.416Z,0
2018-07-17T01:29:35.056Z,0
2018-07-17T01:30:43.706Z,0
2018-07-17T01:31:52.352Z,0
2018-07-17T01:33:01.004Z,0
2018-07-17T01:34:09.647Z,0
2018-07-17T01:35:18.295Z,0
2018-07-17T01:36:26.940Z,0
2018-07-17T01:37:35.855Z,0
2018-07-17T01:38:44.495Z,0
2018-07-17T01:39:53.148Z,0
2018-07-17T01:41:01.791Z,0
2018-07-17T01:42:10.440Z,0
2018-07-17T01:43:19.087Z,0
2018-07-17T01:44:27.993Z,0
2018-07-17T01:45:36.638Z,0
2018-07-17T01:46:45.281Z,0
2018-07-17T01:47:53.934Z,0
2018-07-17T01:49:02.579Z,0
2018-07-17T01:50:11.231Z,0
2018-07-17T01:51:19.870Z,0
2018-07-17T01:52:28.521Z,0
2018-07-17T01:53:37.165Z,0
2018-07-17T01:54:45.812Z,0
2018-07-17T01:55:54.460Z,0
2018-07-17T01:57:03.108Z,0
2018-07-17T01:58:11.752Z,0
2018-07-17T01:59:20.401Z,0
2018-07-17T02:00:29.041Z,0
2018-07-17T02:01:37.692Z,0
2018-07-17T02:02:46.341Z,0
2018-07-17T02:03:54.991Z,0
2018-07-17T02:05:04.102Z,0
2018-07-17T02:06:12.744Z,0
2018-07-17T02:07:21.394Z,0
2018-07-17T02:08:30.039Z,0
2018-07-17T02:09:38.950Z,0
2018-07-17T02:10:47.595Z,0
2018-07-17T02:11:56.237Z,0
2018-07-17T02:13:04.886Z,0
2018-07-17T02:14:13.538Z,0
2018-07-17T02:15:22.179Z,0
2018-07-17T02:16:30.827Z,0
2018-07-17T02:17:39.470Z,0
2018-07-17T02:18:48.176Z,0
2018-07-17T02:19:56.767Z,0
2018-07-17T02:21:05.411Z,0
2018-07-17T02:22:14.055Z,0
2018-07-17T02:23:22.699Z,0
2018-07-17T02:24:31.354Z,0
2018-07-17T02:25:40.313Z,0
2018-07-17T02:26:48.904Z,0
2018-07-17T02:27:57.543Z,0
2018-07-17T02:29:06.196Z,0
2018-07-17T02:30:14.838Z,0
2018-07-17T02:31:23.757Z,0
2018-07-17T02:32:32.667Z,0
2018-07-17T02:33:41.325Z,0
2018-07-17T02:34:50.499Z,0
2018-07-17T02:35:59.148Z,0
2018-07-17T02:37:07.786Z,0
2018-07-17T02:38:16.434Z,0
2018-07-17T02:39:25.084Z,0
2018-07-17T02:40:33.731Z,0
2018-07-17T02:41:42.388Z,0
2018-07-17T02:42:51.291Z,0
2018-07-17T02:43:59.942Z,0
2018-07-17T02:45:08.847Z,0
2018-07-17T02:46:17.503Z,0
2018-07-17T02:47:26.146Z,0
2018-07-17T02:48:35.061Z,0
2018-07-17T02:49:43.704Z,0
2018-07-17T02:50:52.891Z,0
2018-07-17T02:52:01.797Z,0
2018-07-17T02:53:10.450Z,0
2018-07-17T02:54:19.104Z,0
2018-07-17T02:55:28.037Z,0
2018-07-17T02:56:36.685Z,0
2018-07-17T02:57:45.325Z,0
2018-07-17T02:58:54.236Z,0
2018-07-17T03:00:02.881Z,0
2018-07-17T03:01:11.535Z,0
2018-07-17T03:02:20.670Z,0
2018-07-17T03:03:29.564Z,0
2018-07-17T03:04:38.443Z,0
2018-07-17T03:05:47.512Z,0
2018-07-17T03:06:56.551Z,0
2018-07-17T03:08:05.410Z,0
2018-07-17T03:09:14.038Z,0
2018-07-17T03:10:22.692Z,0
2018-07-17T03:11:31.344Z,0
2018-07-17T03:12:39.995Z,0
2018-07-17T03:13:48.642Z,0
2018-07-17T03:14:57.286Z,0
2018-07-17T03:16:06.208Z,0
2018-07-17T03:17:15.390Z,0
2018-07-17T03:18:24.047Z,0
2018-07-17T03:19:32.958Z,0
2018-07-17T03:20:41.887Z,0
2018-07-17T03:21:50.524Z,0
2018-07-17T03:22:59.182Z,0
2018-07-17T03:24:07.827Z,0
2018-07-17T03:25:16.743Z,0
2018-07-17T03:26:25.379Z,5
2018-07-17T03:27:34.026Z,5
2018-07-17T03:28:42.947Z,5
2018-07-17T03:29:51.591Z,5
2018-07-17T03:31:00.242Z,5
2018-07-17T03:32:08.902Z,5
2018-07-17T03:33:17.556Z,5
2018-07-17T03:34:26.474Z,5
2018-07-17T03:35:35.129Z,10
2018-07-17T03:36:43.777Z,10
2018-07-17T03:37:52.416Z,10
2018-07-17T03:39:01.078Z,10
2018-07-17T03:40:09.710Z,10
2018-07-17T03:41:18.368Z,10
2018-07-17T03:42:27.008Z,10
2018-07-17T03:43:35.658Z,15
2018-07-17T03:44:44.563Z,15
2018-07-17T03:45:53.217Z,15
2018-07-17T03:47:01.857Z,15
2018-07-17T03:48:10.771Z,15
2018-07-17T03:49:19.681Z,15
2018-07-17T03:50:28.333Z,15
2018-07-17T03:51:36.977Z,15
2018-07-17T03:52:45.620Z,20
2018-07-17T03:53:54.531Z,20
2018-07-17T03:55:03.175Z,20
2018-07-17T03:56:11.831Z,20
2018-07-17T03:57:20.471Z,20
2018-07-17T03:58:29.124Z,20
2018-07-17T03:59:37.758Z,20
2018-07-17T04:00:46.413Z,25
2018-07-17T04:01:55.080Z,25
2018-07-17T04:03:03.715Z,25
2018-07-17T04:04:12.391Z,30
2018-07-17T04:05:21.008Z,30
2018-07-17T04:06:29.653Z,30
2018-07-17T04:07:38.302Z,35
2018-07-17T04:08:46.952Z,35
2018-07-17T04:09:55.590Z,35
2018-07-17T04:11:04.503Z,40
2018-07-17T04:12:13.154Z,40
2018-07-17T04:13:21.862Z,40
2018-07-17T04:14:30.438Z,40
2018-07-17T04:15:39.358Z,45
2018-07-17T04:16:47.999Z,45
2018-07-17T04:17:56.651Z,45
2018-07-17T04:19:05.290Z,45
2018-07-17T04:20:13.938Z,50
2018-07-17T04:21:22.579Z,50
2018-07-17T04:22:31.235Z,50
2018-07-17T04:23:40.136Z,50
2018-07-17T04:24:49.045Z,55
2018-07-17T04:25:57.690Z,55
2018-07-17T04:27:06.341Z,55
2018-07-17T04:28:14.990Z,55
2018-07-17T04:29:23.632Z,60
2018-07-17T04:30:32.276Z,60
2018-07-17T04:31:41.610Z,60
2018-07-17T04:32:50.523Z,60
2018-07-17T04:33:59.169Z,60
2018-07-17T04:35:07.814Z,65
2018-07-17T04:36:16.455Z,65
2018-07-17T04:37:25.105Z,65
2018-07-17T04:38:33.754Z,65
2018-07-17T04:39:42.397Z,70
2018-07-17T04:40:51.036Z,70
2018-07-17T04:41:59.687Z,70
2018-07-17T04:43:08.331Z,70
2018-07-17T04:44:17.696Z,70
2018-07-17T04:45:26.207Z,75
2018-07-17T04:46:34.852Z,75
2018-07-17T04:47:43.499Z,75
2018-07-17T04:48:52.149Z,75
2018-07-17T04:50:00.797Z,80
2018-07-17T04:51:09.708Z,80
2018-07-17T04:52:18.353Z,80
2018-07-17T04:53:26.998Z,85
2018-07-17T04:54:35.648Z,80
2018-07-17T04:55:44.289Z,80
2018-07-17T04:56:52.939Z,85
2018-07-17T04:58:02.116Z,85
2018-07-17T04:59:11.033Z,85
2018-07-17T05:00:19.677Z,85
2018-07-17T05:01:28.376Z,90
2018-07-17T05:02:37.284Z,95
2018-07-17T05:03:45.935Z,95
2018-07-17T05:04:54.578Z,95
2018-07-17T05:06:03.225Z,100
2018-07-17T05:07:11.871Z,100
2018-07-17T05:08:20.513Z,100
2018-07-17T05:09:29.427Z,100
2018-07-17T05:10:38.072Z,105
2018-07-17T05:11:46.717Z,105
2018-07-17T05:12:55.415Z,105
2018-07-17T05:14:04.280Z,110
2018-07-17T05:15:12.919Z,110
2018-07-17T05:16:21.643Z,110
2018-07-17T05:17:30.208Z,115
2018-07-17T05:18:39.123Z,115
2018-07-17T05:19:47.770Z,115
2018-07-17T05:20:56.681Z,115
2018-07-17T05:22:05.322Z,120
2018-07-17T05:23:13.972Z,120
2018-07-17T05:24:22.617Z,120
2018-07-17T05:25:31.268Z,120
2018-07-17T05:26:39.917Z,125
2018-07-17T05:27:48.556Z,125
2018-07-17T05:28:57.285Z,125
2018-07-17T05:30:05.849Z,125
2018-07-17T05:31:14.506Z,125
2018-07-17T05:32:23.418Z,125
2018-07-17T05:33:32.367Z,130
2018-07-17T05:34:40.975Z,130
2018-07-17T05:35:49.631Z,130
2018-07-17T05:36:58.274Z,135
2018-07-17T05:38:06.925Z,135
2018-07-17T05:39:15.572Z,140
2018-07-17T05:40:24.228Z,140
2018-07-17T05:41:32.872Z,140
2018-07-17T05:42:41.777Z,150
2018-07-17T05:43:50.433Z,145
2018-07-17T05:44:59.073Z,145
2018-07-17T05:46:07.732Z,145
2018-07-17T05:47:16.375Z,150
2018-07-17T05:48:25.027Z,150
2018-07-17T05:49:33.665Z,150
2018-07-17T05:50:42.321Z,150
2018-07-17T05:51:50.973Z,150
2018-07-17T05:52:59.615Z,155
2018-07-17T05:54:08.517Z,155
2018-07-17T05:55:17.172Z,155
2018-07-17T05:56:26.343Z,160
2018-07-17T05:57:34.995Z,160
2018-07-17T05:58:43.635Z,160
2018-07-17T05:59:52.284Z,160
2018-07-17T06:01:00.936Z,160
2018-07-17T06:02:09.590Z,155
2018-07-17T06:03:18.291Z,160
2018-07-17T06:04:27.148Z,160
2018-07-17T06:05:35.798Z,160
2018-07-17T06:06:44.443Z,160
2018-07-17T06:07:53.099Z,165
2018-07-17T06:09:02.006Z,165
2018-07-17T06:10:10.714Z,165
2018-07-17T06:11:19.306Z,165
2018-07-17T06:12:27.960Z,165
2018-07-17T06:13:36.599Z,170
2018-07-17T06:14:45.350Z,170
2018-07-17T06:15:54.022Z,170
2018-07-17T06:17:02.654Z,170
2018-07-17T06:18:11.300Z,170
2018-07-17T06:19:22.970Z,175
2018-07-17T06:20:31.908Z,175
2018-07-17T06:21:40.557Z,175
2018-07-17T06:22:50.133Z,175
2018-07-17T06:23:59.121Z,180
2018-07-17T06:25:07.892Z,180
2018-07-17T06:26:16.879Z,180
2018-07-17T06:27:25.533Z,180
2018-07-17T06:28:34.397Z,180
2018-07-17T06:29:43.069Z,180
2018-07-17T06:30:51.899Z,185
2018-07-17T06:32:00.788Z,185
2018-07-17T06:33:09.922Z,185
2018-07-17T06:34:18.836Z,185
2018-07-17T06:35:27.481Z,185
2018-07-17T06:36:36.134Z,185
2018-07-17T06:37:44.783Z,185
2018-07-17T06:38:53.498Z,185
2018-07-17T06:40:02.089Z,185
2018-07-17T06:41:10.737Z,185
2018-07-17T06:42:19.392Z,185
2018-07-17T06:43:28.040Z,185
2018-07-17T06:44:37.364Z,185
2018-07-17T06:45:46.285Z,185
2018-07-17T06:46:55.140Z,185
2018-07-17T06:48:03.792Z,185
2018-07-17T06:49:12.448Z,185
2018-07-17T06:50:21.202Z,190
2018-07-17T06:51:29.741Z,190
2018-07-17T06:52:38.392Z,190
2018-07-17T06:53:47.306Z,190
2018-07-17T06:54:55.952Z,190
2018-07-17T06:56:04.605Z,190
2018-07-17T06:57:13.532Z,190
2018-07-17T06:58:22.168Z,190
2018-07-17T06:59:30.824Z,190
2018-07-17T07:00:39.470Z,190
2018-07-17T07:01:48.383Z,190
2018-07-17T07:02:57.030Z,190
2018-07-17T07:04:05.684Z,190
2018-07-17T07:05:14.416Z,190
2018-07-17T07:06:22.987Z,190
2018-07-17T07:07:31.635Z,190
2018-07-17T07:08:40.295Z,190
2018-07-17T07:09:48.941Z,195
2018-07-17T07:10:57.593Z,195
2018-07-17T07:12:06.501Z,195
2018-07-17T07:13:15.151Z,195
2018-07-17T07:14:24.062Z,195
2018-07-17T07:15:32.719Z,195
2018-07-17T07:16:41.373Z,195
2018-07-17T07:17:50.020Z,195
2018-07-17T07:18:58.671Z,195
2018-07-17T07:20:07.329Z,195
2018-07-17T07:21:15.999Z,195
2018-07-17T07:22:24.648Z,195
2018-07-17T07:23:33.298Z,195
2018-07-17T07:24:41.947Z,195
2018-07-17T07:25:50.593Z,195
2018-07-17T07:26:59.247Z,195
2018-07-17T07:28:07.899Z,195
2018-07-17T07:29:16.551Z,195
2018-07-17T07:30:25.196Z,195
2018-07-17T07:31:33.848Z,195
2018-07-17T07:32:42.763Z,195
2018-07-17T07:33:51.677Z,195
2018-07-17T07:35:00.330Z,195
2018-07-17T07:36:08.975Z,195
2018-07-17T07:37:17.922Z,195
2018-07-17T07:38:26.573Z,195
2018-07-17T07:39:35.490Z,190
2018-07-17T07:40:44.134Z,195
2018-07-17T07:41:52.782Z,190
2018-07-17T07:43:01.429Z,195
2018-07-17T07:44:10.087Z,200
2018-07-17T07:45:18.729Z,195
2018-07-17T07:46:27.650Z,195
2018-07-17T07:47:36.560Z,195
2018-07-17T07:48:45.216Z,195
2018-07-17T07:49:53.867Z,195
2018-07-17T07:51:02.519Z,195
2018-07-17T07:52:11.166Z,195
2018-07-17T07:53:19.813Z,195
2018-07-17T07:54:28.468Z,195
2018-07-17T07:55:37.501Z,195
2018-07-17T07:56:46.481Z,195
2018-07-17T07:57:55.127Z,195
2018-07-17T07:59:03.789Z,195
2018-07-17T08:00:12.441Z,195
2018-07-17T08:01:21.096Z,195
2018-07-17T08:02:29.737Z,195
2018-07-17T08:03:38.423Z,195
2018-07-17T08:04:47.041Z,195
2018-07-17T08:05:55.695Z,195
2018-07-17T08:07:04.605Z,195
2018-07-17T08:08:13.258Z,195
2018-07-17T08:09:21.909Z,195
2018-07-17T08:10:30.565Z,200
2018-07-17T08:11:39.269Z,200
2018-07-17T08:12:47.866Z,200
2018-07-17T08:13:56.518Z,200
2018-07-17T08:15:05.169Z,200
2018-07-17T08:16:13.824Z,200
2018-07-17T08:17:22.470Z,200
2018-07-17T08:18:31.384Z,200
2018-07-17T08:19:40.312Z,205
2018-07-17T08:20:48.971Z,200
2018-07-17T08:21:57.613Z,200
2018-07-17T08:23:06.269Z,205
2018-07-17T08:24:15.222Z,205
2018-07-17T08:25:23.858Z,205
2018-07-17T08:26:32.514Z,205
2018-07-17T08:27:41.162Z,205
2018-07-17T08:28:49.810Z,210
2018-07-17T08:29:58.460Z,210
2018-07-17T08:31:07.119Z,210
2018-07-17T08:32:15.767Z,210
2018-07-17T08:33:24.423Z,210
2018-07-17T08:34:33.068Z,210
2018-07-17T08:35:41.761Z,210
2018-07-17T08:36:50.376Z,210
2018-07-17T08:37:59.033Z,215
2018-07-17T08:39:07.678Z,215
2018-07-17T08:40:16.338Z,215
2018-07-17T08:41:24.988Z,215
2018-07-17T08:42:33.646Z,215
2018-07-17T08:43:42.383Z,215
2018-07-17T08:44:50.942Z,215
2018-07-17T08:45:59.600Z,215
2018-07-17T08:47:08.255Z,215
2018-07-17T08:48:17.176Z,215
2018-07-17T08:49:25.817Z,215
2018-07-17T08:50:34.479Z,215
2018-07-17T08:51:43.123Z,215
2018-07-17T08:52:51.780Z,220
2018-07-17T08:54:00.437Z,215
2018-07-17T08:55:09.082Z,215
2018-07-17T08:56:17.731Z,215
2018-07-17T08:57:26.657Z,215
2018-07-17T08:58:35.302Z,215
2018-07-17T08:59:44.215Z,215
2018-07-17T09:00:52.864Z,215
2018-07-17T09:02:01.523Z,215
2018-07-17T09:03:10.172Z,220
2018-07-17T09:04:18.818Z,220
2018-07-17T09:05:27.469Z,220
2018-07-17T09:06:36.119Z,215
2018-07-17T09:07:44.784Z,210
2018-07-17T09:08:53.434Z,210
2018-07-17T09:10:02.091Z,215
2018-07-17T09:11:10.739Z,215
2018-07-17T09:12:19.661Z,215
2018-07-17T09:13:28.309Z,220
2018-07-17T09:14:36.964Z,220
2018-07-17T09:15:45.608Z,220
2018-07-17T09:16:54.276Z,220
2018-07-17T09:18:02.925Z,220
2018-07-17T09:19:11.575Z,220
2018-07-17T09:20:20.500Z,220
2018-07-17T09:21:29.227Z,225
2018-07-17T09:22:37.801Z,225
2018-07-17T09:23:46.714Z,225
2018-07-17T09:24:55.365Z,230
2018-07-17T09:26:04.021Z,230
2018-07-17T09:27:12.936Z,235
2018-07-17T09:28:22.050Z,235
2018-07-17T09:29:30.595Z,240
2018-07-17T09:30:39.255Z,240
2018-07-17T09:31:48.431Z,230
2018-07-17T09:32:57.090Z,225
2018-07-17T09:34:05.734Z,230
2018-07-17T09:35:14.392Z,235
2018-07-17T09:36:23.041Z,225
2018-07-17T09:37:31.697Z,230
2018-07-17T09:38:40.355Z,235
2018-07-17T09:39:49.276Z,235
2018-07-17T09:40:57.936Z,235
2018-07-17T09:42:06.857Z,230
2018-07-17T09:43:15.799Z,230
2018-07-17T09:44:24.535Z,225
2018-07-17T09:45:33.101Z,230
2018-07-17T09:46:41.754Z,230
2018-07-17T09:47:50.412Z,230
2018-07-17T09:48:59.060Z,240
2018-07-17T09:50:07.721Z,245
2018-07-17T09:51:16.643Z,250
2018-07-17T09:52:25.303Z,255
2018-07-17T09:53:33.952Z,260
2018-07-17T09:54:42.610Z,265
2018-07-17T09:55:51.264Z,265
2018-07-17T09:56:59.919Z,275
2018-07-17T09:58:08.573Z,275
2018-07-17T09:59:17.490Z,285
2018-07-17T10:00:26.142Z,285
2018-07-17T10:01:34.795Z,290
2018-07-17T10:02:43.453Z,295
2018-07-17T10:03:52.107Z,275
2018-07-17T10:05:01.038Z,305
2018-07-17T10:06:09.687Z,320
2018-07-17T10:07:18.608Z,300
2018-07-17T10:08:27.263Z,320
2018-07-17T10:09:35.966Z,315
2018-07-17T10:10:44.571Z,310
2018-07-17T10:11:53.231Z,325
2018-07-17T10:13:01.882Z,325
2018-07-17T10:14:10.810Z,295
2018-07-17T10:15:19.459Z,310
2018-07-17T10:16:28.117Z,315
2018-07-17T10:17:36.771Z,305
2018-07-17T10:18:45.430Z,245
2018-07-17T10:19:54.145Z,285
2018-07-17T10:21:02.735Z,230
2018-07-17T10:22:11.669Z,285
2018-07-17T10:23:20.319Z,280
2018-07-17T10:24:28.980Z,230
2018-07-17T10:25:37.627Z,215
2018-07-17T10:26:46.447Z,210
2018-07-17T10:27:54.938Z,210
2018-07-17T10:29:03.614Z,205
2018-07-17T10:30:12.251Z,260
2018-07-17T10:31:20.909Z,265
2018-07-17T10:32:29.557Z,265
2018-07-17T10:33:38.222Z,265
2018-07-17T10:34:46.873Z,270
2018-07-17T10:35:55.786Z,270
2018-07-17T10:37:04.436Z,270
2018-07-17T10:38:13.089Z,265
2018-07-17T10:39:21.752Z,265
2018-07-17T10:40:30.404Z,260
2018-07-17T10:41:39.066Z,260
2018-07-17T10:42:47.712Z,255
2018-07-17T10:43:56.375Z,255
2018-07-17T10:45:05.030Z,245
2018-07-17T10:46:13.954Z,250
2018-07-17T10:47:22.679Z,255
2018-07-17T10:48:31.615Z,250
2018-07-17T10:49:40.270Z,250
2018-07-17T10:50:48.930Z,255
2018-07-17T10:51:57.576Z,250
2018-07-17T10:53:06.234Z,250
2018-07-17T10:54:15.156Z,250
2018-07-17T10:55:23.818Z,250
2018-07-17T10:56:32.751Z,250
2018-07-17T10:57:41.396Z,250
2018-07-17T10:58:50.057Z,250
2018-07-17T10:59:58.706Z,235
2018-07-17T11:01:07.724Z,200
2018-07-17T11:02:16.640Z,240
2018-07-17T11:03:25.562Z,235
2018-07-17T11:04:34.210Z,240
2018-07-17T11:05:43.137Z,240
2018-07-17T11:06:52.046Z,240
2018-07-17T11:08:00.706Z,245
2018-07-17T11:09:09.368Z,245
2018-07-17T11:10:18.036Z,245
2018-07-17T11:11:26.688Z,245
2018-07-17T11:12:35.341Z,245
2018-07-17T11:13:43.991Z,245
2018-07-17T11:14:52.644Z,240
2018-07-17T11:16:01.309Z,245
2018-07-17T11:17:09.962Z,240
2018-07-17T11:18:18.613Z,240
2018-07-17T11:19:27.277Z,240
2018-07-17T11:20:35.927Z,245
2018-07-17T11:21:44.583Z,250
2018-07-17T11:22:53.234Z,250
2018-07-17T11:24:01.899Z,245
2018-07-17T11:25:10.548Z,245
2018-07-17T11:26:19.205Z,245
2018-07-17T11:27:28.137Z,240
2018-07-17T11:28:36.798Z,245
2018-07-17T11:29:45.452Z,245
2018-07-17T11:30:54.105Z,250
2018-07-17T11:32:02.859Z,250
2018-07-17T11:33:11.412Z,250
2018-07-17T11:34:20.079Z,250
2018-07-17T11:35:28.730Z,255
2018-07-17T11:36:37.391Z,255
2018-07-17T11:37:46.036Z,255
2018-07-17T11:38:54.712Z,255
2018-07-17T11:40:03.363Z,255
2018-07-17T11:41:12.287Z,250
2018-07-17T11:42:20.936Z,250
2018-07-17T11:43:29.600Z,250
2018-07-17T11:44:38.255Z,250
2018-07-17T11:45:46.914Z,245
2018-07-17T11:46:55.559Z,250
2018-07-17T11:48:04.229Z,250
2018-07-17T11:49:12.884Z,250
2018-07-17T11:50:21.543Z,250
2018-07-17T11:51:30.206Z,245
2018-07-17T11:52:39.109Z,245
2018-07-17T11:53:47.768Z,245
2018-07-17T11:54:56.417Z,245
2018-07-17T11:56:05.088Z,245
2018-07-17T11:57:13.729Z,245
2018-07-17T11:58:22.388Z,250
2018-07-17T11:59:31.184Z,255
2018-07-17T12:00:39.704Z,255
2018-07-17T12:01:48.612Z,255
2018-07-17T12:02:57.273Z,255
2018-07-17T12:04:05.925Z,250
2018-07-17T12:05:14.590Z,250
2018-07-17T12:06:23.244Z,255
2018-07-17T12:07:31.893Z,260
2018-07-17T12:08:40.547Z,260
2018-07-17T12:09:49.199Z,255
2018-07-17T12:10:57.866Z,165
2018-07-17T12:12:06.517Z,170
2018-07-17T12:13:15.179Z,255
2018-07-17T12:14:23.821Z,250
2018-07-17T12:15:32.747Z,240
2018-07-17T12:16:41.406Z,240
2018-07-17T12:17:50.325Z,240
2018-07-17T12:18:59.241Z,240
2018-07-17T12:20:08.176Z,235
2018-07-17T12:21:17.235Z,235
2018-07-17T12:22:25.890Z,240
2018-07-17T12:23:34.543Z,240
2018-07-17T12:24:43.466Z,240
2018-07-17T12:25:52.382Z,245
2018-07-17T12:27:01.039Z,250
2018-07-17T12:28:09.772Z,250
2018-07-17T12:29:18.727Z,250
2018-07-17T12:30:27.380Z,250
2018-07-17T12:31:36.034Z,250
2018-07-17T12:32:44.956Z,250
2018-07-17T12:33:53.612Z,250
2018-07-17T12:35:02.358Z,250
2018-07-17T12:36:10.924Z,255
2018-07-17T12:37:19.585Z,255
2018-07-17T12:38:28.235Z,255
2018-07-17T12:39:36.890Z,255
2018-07-17T12:40:45.545Z,230
2018-07-17T12:41:54.205Z,165
2018-07-17T12:43:03.128Z,150
2018-07-17T12:44:11.803Z,140
2018-07-17T12:45:20.706Z,135
2018-07-17T12:46:29.356Z,145
2018-07-17T12:47:38.017Z,235
2018-07-17T12:48:46.673Z,255
2018-07-17T12:49:55.403Z,270
2018-07-17T12:51:04.247Z,290
2018-07-17T12:52:12.909Z,300
2018-07-17T12:53:21.566Z,290
2018-07-17T12:54:30.488Z,285
2018-07-17T12:55:39.138Z,270
2018-07-17T12:56:47.801Z,255
2018-07-17T12:57:56.456Z,230
2018-07-17T12:59:05.112Z,255
2018-07-17T13:00:13.764Z,260
2018-07-17T13:01:22.423Z,265
2018-07-17T13:02:31.345Z,270
2018-07-17T13:03:40.002Z,275
2018-07-17T13:04:48.669Z,280
2018-07-17T13:05:57.587Z,285
2018-07-17T13:07:06.243Z,190
2018-07-17T13:08:14.896Z,190
2018-07-17T13:09:23.671Z,240
2018-07-17T13:10:32.470Z,280
2018-07-17T13:11:41.129Z,285
2018-07-17T13:12:49.783Z,280
2018-07-17T13:13:58.709Z,280
2018-07-17T13:15:07.359Z,280
2018-07-17T13:16:16.017Z,280
2018-07-17T13:17:24.959Z,270
2018-07-17T13:18:33.647Z,270
2018-07-17T13:19:42.268Z,275
2018-07-17T13:20:50.918Z,275
2018-07-17T13:21:59.570Z,280
2018-07-17T13:23:08.229Z,280
2018-07-17T13:24:16.895Z,280
2018-07-17T13:25:25.547Z,290
2018-07-17T13:26:34.214Z,190
2018-07-17T13:27:43.123Z,175
2018-07-17T13:28:51.788Z,180
2018-07-17T13:30:00.694Z,265
2018-07-17T13:31:09.359Z,275
2018-07-17T13:32:18.006Z,185
2018-07-17T13:33:26.671Z,185
2018-07-17T13:34:35.327Z,195
2018-07-17T13:35:43.987Z,175
2018-07-17T13:36:52.639Z,175
2018-07-17T13:38:01.291Z,210
2018-07-17T13:39:10.009Z,185
2018-07-17T13:40:18.608Z,190
2018-07-17T13:41:27.272Z,270
2018-07-17T13:42:36.179Z,195
2018-07-17T13:43:44.911Z,265
2018-07-17T13:44:53.934Z,270
2018-07-17T13:46:02.510Z,265
2018-07-17T13:47:11.428Z,275
2018-07-17T13:48:20.094Z,285
2018-07-17T13:49:28.739Z,285
2018-07-17T13:50:37.801Z,275
2018-07-17T13:51:46.452Z,265
2018-07-17T13:52:55.484Z,240
2018-07-17T13:54:04.093Z,250
2018-07-17T13:55:12.763Z,245
2018-07-17T13:56:21.905Z,245
2018-07-17T13:57:30.400Z,200
2018-07-17T13:58:39.051Z,260
2018-07-17T13:59:47.707Z,260
2018-07-17T14:00:56.378Z,245
2018-07-17T14:02:05.295Z,235
2018-07-17T14:03:13.954Z,230
2018-07-17T14:04:22.601Z,225
2018-07-17T14:05:31.269Z,220
2018-07-17T14:06:40.178Z,220
2018-07-17T14:07:48.839Z,220
2018-07-17T14:08:57.487Z,230
2018-07-17T14:10:06.153Z,230
2018-07-17T14:11:14.807Z,225
2018-07-17T14:12:23.509Z,220
2018-07-17T14:13:32.113Z,225
2018-07-17T14:14:40.772Z,225
2018-07-17T14:15:49.427Z,210
2018-07-17T14:16:58.123Z,200
2018-07-17T14:18:06.746Z,120
2018-07-17T14:19:15.396Z,205
2018-07-17T14:20:24.348Z,125
2018-07-17T14:21:33.003Z,165
2018-07-17T14:22:41.662Z,200
2018-07-17T14:23:50.386Z,205
2018-07-17T14:24:58.970Z,205
2018-07-17T14:26:07.627Z,200
2018-07-17T14:27:16.289Z,200
2018-07-17T14:28:24.940Z,200
2018-07-17T14:29:33.596Z,200
2018-07-17T14:30:42.251Z,210
2018-07-17T14:31:50.912Z,215
2018-07-17T14:32:59.567Z,225
2018-07-17T14:34:08.221Z,230
2018-07-17T14:35:16.875Z,230
2018-07-17T14:36:25.531Z,235
2018-07-17T14:37:34.189Z,235
2018-07-17T14:38:42.845Z,240
2018-07-17T14:39:51.501Z,240
2018-07-17T14:41:00.156Z,240
2018-07-17T14:42:08.815Z,245
2018-07-17T14:43:17.474Z,245
2018-07-17T14:44:26.128Z,250
2018-07-17T14:45:34.779Z,235
2018-07-17T14:46:43.441Z,225
2018-07-17T14:47:52.094Z,220
2018-07-17T14:49:00.752Z,220
2018-07-17T14:50:09.667Z,220
2018-07-17T14:51:18.856Z,215
2018-07-17T14:52:27.515Z,205
2018-07-17T14:53:36.174Z,195
2018-07-17T14:54:44.834Z,190
2018-07-17T14:55:53.485Z,180
2018-07-17T14:57:02.141Z,180
2018-07-17T14:58:11.062Z,180
2018-07-17T14:59:19.985Z,185
2018-07-17T15:00:28.639Z,180
2018-07-17T15:01:37.300Z,180
2018-07-17T15:02:46.219Z,115
2018-07-17T15:03:54.883Z,115
2018-07-17T15:05:03.534Z,110
2018-07-17T15:06:12.191Z,105
2018-07-17T15:07:20.840Z,110
2018-07-17T15:08:29.505Z,125
2018-07-17T15:09:38.365Z,165
2018-07-17T15:10:46.812Z,195
2018-07-17T15:11:55.468Z,195
2018-07-17T15:13:04.127Z,190
2018-07-17T15:14:12.777Z,185
2018-07-17T15:15:21.701Z,185
2018-07-17T15:16:30.354Z,185
2018-07-17T15:17:39.014Z,190
2018-07-17T15:18:47.663Z,195
2018-07-17T15:19:56.319Z,190
2018-07-17T15:21:05.249Z,190
2018-07-17T15:22:13.909Z,185
2018-07-17T15:23:22.557Z,180
2018-07-17T15:24:31.216Z,125
2018-07-17T15:25:39.868Z,150
2018-07-17T15:26:48.534Z,135
2018-07-17T15:27:57.313Z,130
2018-07-17T15:29:05.844Z,130
2018-07-17T15:30:14.763Z,130
2018-07-17T15:31:23.416Z,140
2018-07-17T15:32:32.075Z,200
2018-07-17T15:33:40.732Z,210
2018-07-17T15:34:49.385Z,225
2018-07-17T15:35:58.032Z,230
2018-07-17T15:37:06.693Z,230
2018-07-17T15:38:15.360Z,225
2018-07-17T15:39:24.342Z,210
2018-07-17T15:40:33.031Z,195
2018-07-17T15:41:41.654Z,195
2018-07-17T15:42:50.571Z,220
2018-07-17T15:43:59.230Z,230
2018-07-17T15:45:07.884Z,220
2018-07-17T15:46:16.546Z,195
2018-07-17T15:47:25.205Z,185
2018-07-17T15:48:33.861Z,185
2018-07-17T15:49:42.518Z,185
2018-07-17T15:50:51.169Z,180
2018-07-17T15:52:00.091Z,175
2018-07-17T15:53:08.748Z,130
2018-07-17T15:54:17.775Z,175
2018-07-17T15:55:26.426Z,180
2018-07-17T15:56:35.083Z,180
2018-07-17T15:57:43.736Z,175
2018-07-17T15:58:52.397Z,175
2018-07-17T16:00:01.185Z,170
2018-07-17T16:01:09.709Z,165
2018-07-17T16:02:18.362Z,160
2018-07-17T16:03:27.020Z,160